createdAt,value
2023-03-03T00:00:12.337Z,0.00
2023-03-03T00:01:12.314Z,0.00
2023-03-03T00:02:12.346Z,0.00
2023-03-03T00:03:12.364Z,0.00
2023-03-03T00:04:12.283Z,0.00
2023-03-03T00:05:12.304Z,0.00
2023-03-03T00:06:12.274Z,0.00
2023-03-03T00:07:13.326Z,0.00
2023-03-03T00:08:12.244Z,0.00
2023-03-03T00:09:12.232Z,0.00
2023-03-03T00:10:12.242Z,0.00
2023-03-03T00:11:12.228Z,0.00
2023-03-03T00:12:12.202Z,0.00
2023-03-03T00:13:12.198Z,0.00
2023-03-03T00:14:12.188Z,0.00
2023-03-03T00:15:12.171Z,0.00
2023-03-03T00:16:12.171Z,0.00
2023-03-03T00:17:13.186Z,0.00
2023-03-03T00:18:12.138Z,0.00
2023-03-03T00:19:12.123Z,0.00
2023-03-03T00:20:12.101Z,0.00
2023-03-03T00:21:12.094Z,0.00
2023-03-03T00:22:12.094Z,0.00
2023-03-03T00:23:12.076Z,0.00
2023-03-03T00:24:12.061Z,0.00
2023-03-03T00:25:12.056Z,0.00
2023-03-03T00:26:12.037Z,0.00
2023-03-03T00:27:12.044Z,0.00
2023-03-03T00:28:12.028Z,0.00
2023-03-03T00:29:12.028Z,0.00
2023-03-03T00:30:11.990Z,0.00
2023-03-03T00:31:12.041Z,0.00
2023-03-03T00:32:11.987Z,0.00
2023-03-03T00:33:11.998Z,0.00
2023-03-03T00:34:11.945Z,0.00
2023-03-03T00:35:14.020Z,0.00
2023-03-03T00:36:11.930Z,0.00
2023-03-03T00:37:11.929Z,0.00
2023-03-03T00:38:11.923Z,0.00
2023-03-03T00:39:11.896Z,0.00
2023-03-03T00:40:11.881Z,0.00
2023-03-03T00:41:11.884Z,0.00
2023-03-03T00:42:11.874Z,0.00
2023-03-03T00:43:11.880Z,0.00
2023-03-03T00:44:11.841Z,0.00
2023-03-03T00:45:11.856Z,0.00
2023-03-03T00:46:11.851Z,0.00
2023-03-03T00:47:11.801Z,0.00
2023-03-03T00:48:12.828Z,0.00
2023-03-03T00:49:11.786Z,0.00
2023-03-03T00:50:12.778Z,0.00
2023-03-03T00:51:11.760Z,0.00
2023-03-03T00:52:11.759Z,0.00
2023-03-03T00:53:11.741Z,0.00
2023-03-03T00:54:11.757Z,0.00
2023-03-03T00:55:11.722Z,0.00
2023-03-03T00:56:11.724Z,0.00
2023-03-03T00:57:11.696Z,0.00
2023-03-03T00:58:11.689Z,0.00
2023-03-03T00:59:11.689Z,0.00
2023-03-03T01:00:11.673Z,0.00
2023-03-03T01:01:11.697Z,0.00
2023-03-03T01:02:11.650Z,0.00
2023-03-03T01:03:11.642Z,0.00
2023-03-03T01:04:11.645Z,0.00
2023-03-03T01:05:11.613Z,0.00
2023-03-03T01:06:11.603Z,0.00
2023-03-03T01:07:36.492Z,0.00
2023-03-03T01:08:11.620Z,0.00
2023-03-03T01:09:11.598Z,0.00
2023-03-03T01:10:11.579Z,0.00
2023-03-03T01:11:11.549Z,0.00
2023-03-03T01:12:11.529Z,0.00
2023-03-03T01:13:11.518Z,0.00
2023-03-03T01:14:11.579Z,0.00
2023-03-03T01:15:11.517Z,0.00
2023-03-03T01:16:11.597Z,0.00
2023-03-03T01:17:11.497Z,0.00
2023-03-03T01:18:11.485Z,0.00
2023-03-03T01:19:11.454Z,0.00
2023-03-03T01:20:11.446Z,0.00
2023-03-03T01:21:11.443Z,0.00
2023-03-03T01:22:11.443Z,0.00
2023-03-03T01:23:11.417Z,0.00
2023-03-03T01:24:11.408Z,0.00
2023-03-03T01:25:11.410Z,0.00
2023-03-03T01:26:11.415Z,0.00
2023-03-03T01:27:11.379Z,0.00
2023-03-03T01:28:11.372Z,0.00
2023-03-03T01:29:11.346Z,0.00
2023-03-03T01:30:11.338Z,0.00
2023-03-03T01:31:11.378Z,0.00
2023-03-03T01:32:11.417Z,0.00
2023-03-03T01:33:11.335Z,0.00
2023-03-03T01:34:11.312Z,0.00
2023-03-03T01:35:11.280Z,0.00
2023-03-03T01:36:11.297Z,0.00
2023-03-03T01:37:11.253Z,0.00
2023-03-03T01:38:11.253Z,0.00
2023-03-03T01:39:11.233Z,0.00
2023-03-03T01:40:11.235Z,0.00
2023-03-03T01:41:11.236Z,0.00
2023-03-03T01:42:11.214Z,0.00
2023-03-03T01:43:12.232Z,0.00
2023-03-03T01:44:11.199Z,0.00
2023-03-03T01:45:11.177Z,0.00
2023-03-03T01:46:11.225Z,0.00
2023-03-03T01:47:11.171Z,0.00
2023-03-03T01:48:11.154Z,0.00
2023-03-03T01:49:11.170Z,0.00
2023-03-03T01:50:11.123Z,0.00
2023-03-03T01:51:11.119Z,0.00
2023-03-03T01:52:11.103Z,0.00
2023-03-03T01:53:11.121Z,0.00
2023-03-03T01:54:11.098Z,0.00
2023-03-03T01:55:11.066Z,0.00
2023-03-03T01:56:11.048Z,0.00
2023-03-03T01:57:11.114Z,0.00
2023-03-03T01:58:11.052Z,0.00
2023-03-03T01:59:11.027Z,0.00
2023-03-03T02:00:11.006Z,0.00
2023-03-03T02:01:12.347Z,0.00
2023-03-03T02:02:11.023Z,0.00
2023-03-03T02:03:11.079Z,0.00
2023-03-03T02:04:10.988Z,0.00
2023-03-03T02:05:10.967Z,0.00
2023-03-03T02:06:12.013Z,0.00
2023-03-03T02:07:11.001Z,0.00
2023-03-03T02:08:10.957Z,0.00
2023-03-03T02:09:10.909Z,0.00
2023-03-03T02:10:10.929Z,0.00
2023-03-03T02:11:10.890Z,0.00
2023-03-03T02:12:11.951Z,0.00
2023-03-03T02:13:10.860Z,0.00
2023-03-03T02:14:10.875Z,0.00
2023-03-03T02:15:10.866Z,0.00
2023-03-03T02:16:10.923Z,0.00
2023-03-03T02:17:10.837Z,0.00
2023-03-03T02:18:10.832Z,0.00
2023-03-03T02:19:10.820Z,0.00
2023-03-03T02:20:10.813Z,0.00
2023-03-03T02:21:10.802Z,0.00
2023-03-03T02:22:10.779Z,0.00
2023-03-03T02:23:10.771Z,0.00
2023-03-03T02:24:10.762Z,0.00
2023-03-03T02:25:10.761Z,0.00
2023-03-03T02:26:10.775Z,0.00
2023-03-03T02:27:10.724Z,0.00
2023-03-03T02:28:10.720Z,0.00
2023-03-03T02:29:10.705Z,0.00
2023-03-03T02:30:10.736Z,0.00
2023-03-03T02:31:10.728Z,0.00
2023-03-03T02:32:10.858Z,0.00
2023-03-03T02:33:10.656Z,0.00
2023-03-03T02:34:10.640Z,0.00
2023-03-03T02:35:10.638Z,0.00
2023-03-03T02:36:10.643Z,0.00
2023-03-03T02:37:10.652Z,0.00
2023-03-03T02:38:10.608Z,0.00
2023-03-03T02:39:10.595Z,0.00
2023-03-03T02:40:10.579Z,0.00
2023-03-03T02:41:10.595Z,0.00
2023-03-03T02:42:10.590Z,0.00
2023-03-03T02:43:10.545Z,0.00
2023-03-03T02:44:10.541Z,0.00
2023-03-03T02:45:10.533Z,0.00
2023-03-03T02:46:10.555Z,0.00
2023-03-03T02:47:10.540Z,0.00
2023-03-03T02:48:10.502Z,0.00
2023-03-03T02:49:10.475Z,0.00
2023-03-03T02:50:11.514Z,0.00
2023-03-03T02:51:10.484Z,0.00
2023-03-03T02:52:10.471Z,0.00
2023-03-03T02:53:10.484Z,0.00
2023-03-03T02:54:10.460Z,0.00
2023-03-03T02:55:10.415Z,0.00
2023-03-03T02:56:10.396Z,0.00
2023-03-03T02:57:10.405Z,0.00
2023-03-03T02:58:10.380Z,0.00
2023-03-03T02:59:10.371Z,0.00
2023-03-03T03:00:10.350Z,0.00
2023-03-03T03:01:10.423Z,0.00
2023-03-03T03:02:10.425Z,0.00
2023-03-03T03:03:10.358Z,0.00
2023-03-03T03:04:10.323Z,0.00
2023-03-03T03:05:10.297Z,0.00
2023-03-03T03:06:10.280Z,0.00
2023-03-03T03:07:11.336Z,0.00
2023-03-03T03:08:10.283Z,0.00
2023-03-03T03:09:10.297Z,0.00
2023-03-03T03:10:10.282Z,0.00
2023-03-03T03:11:10.245Z,0.00
2023-03-03T03:12:10.251Z,0.00
2023-03-03T03:13:10.209Z,0.00
2023-03-03T03:14:10.223Z,0.00
2023-03-03T03:15:10.184Z,0.00
2023-03-03T03:16:10.280Z,0.00
2023-03-03T03:17:10.165Z,0.00
2023-03-03T03:18:10.190Z,0.00
2023-03-03T03:19:10.142Z,0.00
2023-03-03T03:20:10.165Z,0.00
2023-03-03T03:21:10.145Z,0.00
2023-03-03T03:22:10.120Z,0.00
2023-03-03T03:23:10.096Z,0.00
2023-03-03T03:24:10.109Z,0.00
2023-03-03T03:25:10.121Z,0.00
2023-03-03T03:26:10.072Z,0.00
2023-03-03T03:27:10.075Z,0.00
2023-03-03T03:28:10.055Z,0.00
2023-03-03T03:29:10.040Z,0.00
2023-03-03T03:30:10.034Z,0.00
2023-03-03T03:31:10.128Z,0.00
2023-03-03T03:32:10.029Z,0.00
2023-03-03T03:33:09.998Z,0.00
2023-03-03T03:34:09.991Z,0.00
2023-03-03T03:35:09.992Z,0.00
2023-03-03T03:36:09.965Z,0.00
2023-03-03T03:37:10.025Z,0.00
2023-03-03T03:38:09.940Z,0.00
2023-03-03T03:39:09.932Z,0.00
2023-03-03T03:40:09.918Z,0.00
2023-03-03T03:41:09.925Z,0.00
2023-03-03T03:42:09.919Z,0.00
2023-03-03T03:43:09.883Z,0.00
2023-03-03T03:44:09.905Z,0.00
2023-03-03T03:45:09.860Z,0.00
2023-03-03T03:46:10.946Z,0.00
2023-03-03T03:47:09.838Z,0.00
2023-03-03T03:48:09.852Z,0.00
2023-03-03T03:49:09.818Z,0.00
2023-03-03T03:50:09.816Z,0.00
2023-03-03T03:51:09.795Z,0.00
2023-03-03T03:52:09.814Z,0.00
2023-03-03T03:53:09.790Z,0.00
2023-03-03T03:54:09.793Z,0.00
2023-03-03T03:55:09.753Z,0.00
2023-03-03T03:56:09.772Z,0.00
2023-03-03T03:57:09.756Z,0.00
2023-03-03T03:58:09.763Z,0.00
2023-03-03T03:59:09.714Z,0.00
2023-03-03T04:00:09.704Z,0.00
2023-03-03T04:01:09.707Z,0.00
2023-03-03T04:02:09.788Z,0.00
2023-03-03T04:03:09.793Z,0.00
2023-03-03T04:04:09.676Z,0.00
2023-03-03T04:05:09.660Z,0.00
2023-03-03T04:06:09.665Z,0.00
2023-03-03T04:07:11.626Z,0.00
2023-03-03T04:08:09.646Z,0.00
2023-03-03T04:09:09.661Z,0.00
2023-03-03T04:10:09.596Z,0.00
2023-03-03T04:11:11.680Z,0.00
2023-03-03T04:12:09.567Z,0.00
2023-03-03T04:13:09.601Z,0.00
2023-03-03T04:14:09.579Z,0.00
2023-03-03T04:15:09.544Z,0.00
2023-03-03T04:16:09.650Z,0.00
2023-03-03T04:17:09.519Z,0.00
2023-03-03T04:18:09.522Z,0.00
2023-03-03T04:19:09.508Z,0.00
2023-03-03T04:20:09.524Z,0.00
2023-03-03T04:21:09.478Z,0.00
2023-03-03T04:22:09.476Z,0.00
2023-03-03T04:23:09.461Z,0.00
2023-03-03T04:24:09.468Z,0.00
2023-03-03T04:25:09.457Z,0.00
2023-03-03T04:26:10.469Z,0.00
2023-03-03T04:27:09.479Z,0.00
2023-03-03T04:28:09.422Z,0.00
2023-03-03T04:29:09.418Z,0.00
2023-03-03T04:30:09.394Z,0.00
2023-03-03T04:31:09.497Z,0.00
2023-03-03T04:32:09.425Z,0.00
2023-03-03T04:33:09.358Z,0.00
2023-03-03T04:34:09.338Z,0.00
2023-03-03T04:35:09.336Z,0.00
2023-03-03T04:36:09.360Z,0.00
2023-03-03T04:37:09.316Z,0.00
2023-03-03T04:38:09.303Z,0.00
2023-03-03T04:39:09.294Z,0.00
2023-03-03T04:40:09.265Z,0.00
2023-03-03T04:41:09.317Z,0.00
2023-03-03T04:42:09.246Z,0.00
2023-03-03T04:43:09.241Z,0.00
2023-03-03T04:44:09.235Z,0.00
2023-03-03T04:45:09.252Z,0.00
2023-03-03T04:46:09.257Z,0.00
2023-03-03T04:47:09.224Z,0.00
2023-03-03T04:48:09.202Z,0.00
2023-03-03T04:49:12.086Z,0.00
2023-03-03T04:50:09.161Z,0.00
2023-03-03T04:51:09.160Z,0.00
2023-03-03T04:52:09.169Z,0.00
2023-03-03T04:53:09.146Z,0.00
2023-03-03T04:54:09.117Z,0.00
2023-03-03T04:55:10.636Z,0.00
2023-03-03T04:56:09.104Z,0.00
2023-03-03T04:57:09.086Z,0.00
2023-03-03T04:58:09.102Z,0.00
2023-03-03T04:59:09.071Z,0.00
2023-03-03T05:00:09.060Z,0.00
2023-03-03T05:01:09.055Z,0.00
2023-03-03T05:02:09.038Z,0.00
2023-03-03T05:03:09.043Z,0.00
2023-03-03T05:04:09.275Z,0.00
2023-03-03T05:05:09.000Z,0.00
2023-03-03T05:06:08.997Z,0.00
2023-03-03T05:07:08.974Z,0.00
2023-03-03T05:08:10.013Z,0.00
2023-03-03T05:09:08.957Z,0.00
2023-03-03T05:10:08.943Z,0.00
2023-03-03T05:11:08.926Z,0.00
2023-03-03T05:12:09.960Z,0.00
2023-03-03T05:13:08.909Z,0.00
2023-03-03T05:14:08.920Z,0.00
2023-03-03T05:15:08.886Z,0.00
2023-03-03T05:16:08.927Z,0.00
2023-03-03T05:17:08.876Z,0.00
2023-03-03T05:18:08.847Z,0.00
2023-03-03T05:19:08.877Z,0.00
2023-03-03T05:20:08.838Z,0.00
2023-03-03T05:21:08.824Z,0.00
2023-03-03T05:22:08.804Z,0.00
2023-03-03T05:23:08.783Z,0.00
2023-03-03T05:24:08.806Z,0.00
2023-03-03T05:25:08.788Z,0.00
2023-03-03T05:26:08.753Z,0.00
2023-03-03T05:27:08.737Z,0.00
2023-03-03T05:28:08.733Z,0.00
2023-03-03T05:29:08.717Z,0.00
2023-03-03T05:30:08.735Z,0.00
2023-03-03T05:31:08.807Z,0.00
2023-03-03T05:32:08.715Z,0.00
2023-03-03T05:33:08.693Z,0.00
2023-03-03T05:34:08.702Z,0.00
2023-03-03T05:35:08.693Z,0.00
2023-03-03T05:36:08.655Z,0.00
2023-03-03T05:37:08.630Z,0.00
2023-03-03T05:38:08.640Z,0.00
2023-03-03T05:39:08.613Z,0.00
2023-03-03T05:40:08.609Z,0.00
2023-03-03T05:41:08.642Z,0.00
2023-03-03T05:42:08.629Z,0.00
2023-03-03T05:43:08.579Z,0.00
2023-03-03T05:44:08.607Z,0.00
2023-03-03T05:45:08.545Z,0.00
2023-03-03T05:46:08.533Z,0.00
2023-03-03T05:47:08.546Z,0.00
2023-03-03T05:48:08.522Z,4.00
2023-03-03T05:49:08.521Z,4.00
2023-03-03T05:50:08.493Z,0.00
2023-03-03T05:51:08.483Z,0.00
2023-03-03T05:52:08.519Z,4.00
2023-03-03T05:53:08.492Z,4.00
2023-03-03T05:54:08.442Z,4.00
2023-03-03T05:55:09.484Z,0.00
2023-03-03T05:56:08.426Z,4.00
2023-03-03T05:57:08.429Z,4.00
2023-03-03T05:58:08.407Z,4.00
2023-03-03T05:59:09.485Z,8.00
2023-03-03T06:00:08.391Z,8.00
2023-03-03T06:01:09.422Z,8.00
2023-03-03T06:02:08.488Z,8.00
2023-03-03T06:03:08.403Z,12.00
2023-03-03T06:04:08.346Z,8.00
2023-03-03T06:05:08.369Z,12.00
2023-03-03T06:06:08.325Z,12.00
2023-03-03T06:07:08.329Z,16.00
2023-03-03T06:08:08.306Z,16.00
2023-03-03T06:09:08.285Z,16.00
2023-03-03T06:10:08.284Z,20.00
2023-03-03T06:11:08.270Z,20.00
2023-03-03T06:12:08.256Z,24.00
2023-03-03T06:13:08.274Z,28.00
2023-03-03T06:14:08.285Z,32.00
2023-03-03T06:15:08.323Z,32.00
2023-03-03T06:16:08.228Z,36.00
2023-03-03T06:17:08.201Z,36.00
2023-03-03T06:18:08.219Z,36.00
2023-03-03T06:19:08.196Z,44.00
2023-03-03T06:20:08.189Z,44.00
2023-03-03T06:21:08.183Z,44.00
2023-03-03T06:22:08.157Z,52.00
2023-03-03T06:23:08.145Z,52.00
2023-03-03T06:24:08.134Z,56.00
2023-03-03T06:25:08.159Z,60.00
2023-03-03T06:26:08.106Z,64.00
2023-03-03T06:27:08.092Z,68.00
2023-03-03T06:28:08.096Z,72.00
2023-03-03T06:29:08.070Z,72.00
2023-03-03T06:30:08.062Z,76.00
2023-03-03T06:31:08.079Z,80.00
2023-03-03T06:32:08.278Z,88.00
2023-03-03T06:33:08.033Z,92.00
2023-03-03T06:34:08.013Z,92.00
2023-03-03T06:35:08.007Z,96.00
2023-03-03T06:36:08.007Z,100.00
2023-03-03T06:37:08.119Z,108.00
2023-03-03T06:38:07.994Z,108.00
2023-03-03T06:39:07.968Z,120.00
2023-03-03T06:40:07.956Z,128.00
2023-03-03T06:41:07.953Z,140.00
2023-03-03T06:42:07.963Z,140.00
2023-03-03T06:43:07.907Z,140.00
2023-03-03T06:44:07.904Z,144.00
2023-03-03T06:45:07.904Z,148.00
2023-03-03T06:46:07.989Z,152.00
2023-03-03T06:47:07.904Z,164.00
2023-03-03T06:48:07.867Z,176.00
2023-03-03T06:49:07.869Z,164.00
2023-03-03T06:50:07.829Z,164.00
2023-03-03T06:51:07.829Z,168.00
2023-03-03T06:52:07.847Z,184.00
2023-03-03T06:53:07.812Z,200.00
2023-03-03T06:54:07.802Z,204.00
2023-03-03T06:55:07.789Z,212.00
2023-03-03T06:56:07.821Z,216.00
2023-03-03T06:57:07.799Z,228.00
2023-03-03T06:58:07.787Z,228.00
2023-03-03T06:59:07.741Z,228.00
2023-03-03T07:00:07.734Z,236.00
2023-03-03T07:01:07.842Z,260.00
2023-03-03T07:02:07.714Z,272.00
2023-03-03T07:03:07.776Z,264.00
2023-03-03T07:04:08.787Z,256.00
2023-03-03T07:05:07.681Z,252.00
2023-03-03T07:06:07.673Z,264.00
2023-03-03T07:07:07.666Z,280.00
2023-03-03T07:08:07.684Z,304.00
2023-03-03T07:09:07.657Z,304.00
2023-03-03T07:10:07.641Z,308.00
2023-03-03T07:11:28.635Z,312.00
2023-03-03T07:12:07.612Z,312.00
2023-03-03T07:13:07.604Z,308.00
2023-03-03T07:14:07.596Z,316.00
2023-03-03T07:15:07.602Z,320.00
2023-03-03T07:16:07.584Z,320.00
2023-03-03T07:17:07.556Z,320.00
2023-03-03T07:18:07.546Z,332.00
2023-03-03T07:19:07.558Z,344.00
2023-03-03T07:20:07.521Z,352.00
2023-03-03T07:21:08.533Z,368.00
2023-03-03T07:22:07.514Z,376.00
2023-03-03T07:23:07.494Z,372.00
2023-03-03T07:24:07.516Z,380.00
2023-03-03T07:25:07.508Z,384.00
2023-03-03T07:26:07.468Z,384.00
2023-03-03T07:27:07.455Z,392.00
2023-03-03T07:28:07.444Z,388.00
2023-03-03T07:29:08.487Z,400.00
2023-03-03T07:30:07.419Z,428.00
2023-03-03T07:31:07.510Z,448.00
2023-03-03T07:32:07.392Z,464.00
2023-03-03T07:33:07.389Z,488.00
2023-03-03T07:34:07.413Z,524.00
2023-03-03T07:35:07.382Z,536.00
2023-03-03T07:36:07.359Z,536.00
2023-03-03T07:37:07.350Z,532.00
2023-03-03T07:38:07.366Z,548.00
2023-03-03T07:39:07.325Z,540.00
2023-03-03T07:40:07.323Z,528.00
2023-03-03T07:41:07.320Z,548.00
2023-03-03T07:42:15.326Z,568.00
2023-03-03T07:43:07.307Z,580.00
2023-03-03T07:44:07.255Z,588.00
2023-03-03T07:45:07.294Z,604.00
2023-03-03T07:46:07.300Z,608.00
2023-03-03T07:47:08.282Z,620.00
2023-03-03T07:48:07.228Z,636.00
2023-03-03T07:49:07.217Z,636.00
2023-03-03T07:50:07.212Z,640.00
2023-03-03T07:51:07.215Z,668.00
2023-03-03T07:52:07.189Z,684.00
2023-03-03T07:53:08.221Z,692.00
2023-03-03T07:54:07.183Z,704.00
2023-03-03T07:55:08.156Z,724.00
2023-03-03T07:56:07.139Z,740.00
2023-03-03T07:57:07.161Z,736.00
2023-03-03T07:58:07.125Z,740.00
2023-03-03T07:59:07.099Z,724.00
2023-03-03T08:00:07.102Z,692.00
2023-03-03T08:01:07.082Z,684.00
2023-03-03T08:02:07.102Z,708.00
2023-03-03T08:03:07.059Z,728.00
2023-03-03T08:04:07.110Z,756.00
2023-03-03T08:05:07.202Z,756.00
2023-03-03T08:06:07.039Z,776.00
2023-03-03T08:07:07.030Z,780.00
2023-03-03T08:08:07.025Z,768.00
2023-03-03T08:09:06.996Z,780.00
2023-03-03T08:10:07.050Z,760.00
2023-03-03T08:11:06.997Z,760.00
2023-03-03T08:12:06.968Z,776.00
2023-03-03T08:13:06.968Z,768.00
2023-03-03T08:14:06.946Z,804.00
2023-03-03T08:15:06.927Z,828.00
2023-03-03T08:16:06.953Z,852.00
2023-03-03T08:17:06.908Z,916.00
2023-03-03T08:18:06.897Z,924.00
2023-03-03T08:19:06.915Z,912.00
2023-03-03T08:20:06.858Z,956.00
2023-03-03T08:21:06.859Z,984.00
2023-03-03T08:22:06.842Z,1032.00
2023-03-03T08:23:06.833Z,1032.00
2023-03-03T08:24:06.846Z,1008.00
2023-03-03T08:25:06.819Z,984.00
2023-03-03T08:26:06.794Z,992.00
2023-03-03T08:27:06.795Z,1004.00
2023-03-03T08:28:06.814Z,1064.00
2023-03-03T08:29:06.808Z,1144.00
2023-03-03T08:30:06.777Z,1204.00
2023-03-03T08:31:18.460Z,1192.00
2023-03-03T08:32:07.923Z,1160.00
2023-03-03T08:33:06.740Z,1188.00
2023-03-03T08:34:06.728Z,1188.00
2023-03-03T08:35:06.718Z,1112.00
2023-03-03T08:36:07.518Z,1104.00
2023-03-03T08:37:06.696Z,1108.00
2023-03-03T08:38:06.659Z,1116.00
2023-03-03T08:39:06.649Z,1132.00
2023-03-03T08:40:06.660Z,1116.00
2023-03-03T08:41:06.648Z,1136.00
2023-03-03T08:42:06.626Z,1152.00
2023-03-03T08:43:07.629Z,1140.00
2023-03-03T08:44:06.588Z,1160.00
2023-03-03T08:45:06.655Z,1216.00
2023-03-03T08:46:06.651Z,1204.00
2023-03-03T08:47:06.598Z,1148.00
2023-03-03T08:48:06.602Z,1212.00
2023-03-03T08:49:06.552Z,1240.00
2023-03-03T08:50:06.537Z,1376.00
2023-03-03T08:51:06.529Z,1440.00
2023-03-03T08:52:06.533Z,1372.00
2023-03-03T08:53:06.499Z,1464.00
2023-03-03T08:54:06.510Z,1580.00
2023-03-03T08:55:08.718Z,1704.00
2023-03-03T08:56:06.464Z,1800.00
2023-03-03T08:57:06.475Z,1840.00
2023-03-03T08:58:06.431Z,2000.00
2023-03-03T08:59:06.455Z,2032.00
2023-03-03T09:00:06.423Z,2032.00
2023-03-03T09:01:06.452Z,2204.00
2023-03-03T09:02:06.509Z,2380.00
2023-03-03T09:03:06.389Z,2352.00
2023-03-03T09:04:06.454Z,2324.00
2023-03-03T09:05:06.370Z,2392.00
2023-03-03T09:06:06.392Z,2188.00
2023-03-03T09:07:06.354Z,2128.00
2023-03-03T09:08:06.328Z,2136.00
2023-03-03T09:09:06.317Z,2104.00
2023-03-03T09:10:06.309Z,1996.00
2023-03-03T09:11:06.313Z,1804.00
2023-03-03T09:12:06.325Z,1848.00
2023-03-03T09:13:06.280Z,1988.00
2023-03-03T09:14:06.294Z,2072.00
2023-03-03T09:15:06.252Z,2156.00
2023-03-03T09:16:06.299Z,2120.00
2023-03-03T09:17:06.322Z,2200.00
2023-03-03T09:18:06.231Z,2184.00
2023-03-03T09:19:06.244Z,2152.00
2023-03-03T09:20:06.213Z,2148.00
2023-03-03T09:21:06.208Z,2172.00
2023-03-03T09:22:06.188Z,2124.00
2023-03-03T09:23:06.187Z,2064.00
2023-03-03T09:24:06.191Z,2056.00
2023-03-03T09:25:06.141Z,1996.00
2023-03-03T09:26:07.145Z,1956.00
2023-03-03T09:27:06.145Z,2012.00
2023-03-03T09:28:06.147Z,2048.00
2023-03-03T09:29:06.100Z,2032.00
2023-03-03T09:30:06.107Z,2024.00
2023-03-03T09:31:07.581Z,2316.00
2023-03-03T09:32:06.218Z,2356.00
2023-03-03T09:33:06.110Z,2356.00
2023-03-03T09:34:06.053Z,2260.00
2023-03-03T09:35:06.034Z,2184.00
2023-03-03T09:36:06.023Z,2144.00
2023-03-03T09:37:06.021Z,2136.00
2023-03-03T09:38:06.002Z,2104.00
2023-03-03T09:39:05.994Z,2068.00
2023-03-03T09:40:06.043Z,2036.00
2023-03-03T09:41:05.966Z,1988.00
2023-03-03T09:42:05.958Z,2016.00
2023-03-03T09:43:05.954Z,2104.00
2023-03-03T09:44:05.933Z,2180.00
2023-03-03T09:45:05.918Z,2180.00
2023-03-03T09:46:05.937Z,2136.00
2023-03-03T09:47:05.896Z,2104.00
2023-03-03T09:48:05.886Z,2060.00
2023-03-03T09:49:05.890Z,2072.00
2023-03-03T09:50:05.864Z,2084.00
2023-03-03T09:51:05.851Z,2124.00
2023-03-03T09:52:05.867Z,2092.00
2023-03-03T09:53:05.840Z,2092.00
2023-03-03T09:54:05.825Z,2140.00
2023-03-03T09:55:05.834Z,2168.00
2023-03-03T09:56:05.802Z,2220.00
2023-03-03T09:57:05.780Z,2300.00
2023-03-03T09:58:10.910Z,2364.00
2023-03-03T09:59:06.775Z,2380.00
2023-03-03T10:00:05.788Z,2440.00
2023-03-03T10:01:06.794Z,2536.00
2023-03-03T10:02:06.595Z,2580.00
2023-03-03T10:03:05.742Z,2660.00
2023-03-03T10:04:05.761Z,2668.00
2023-03-03T10:05:05.785Z,2672.00
2023-03-03T10:06:05.704Z,2776.00
2023-03-03T10:07:05.729Z,2876.00
2023-03-03T10:08:05.673Z,2924.00
2023-03-03T10:09:05.658Z,2872.00
2023-03-03T10:10:05.673Z,2872.00
2023-03-03T10:11:05.671Z,2940.00
2023-03-03T10:12:05.607Z,2980.00
2023-03-03T10:13:05.641Z,2996.00
2023-03-03T10:14:05.629Z,2940.00
2023-03-03T10:15:05.614Z,2800.00
2023-03-03T10:16:05.646Z,2780.00
2023-03-03T10:17:05.567Z,2768.00
2023-03-03T10:18:05.553Z,2784.00
2023-03-03T10:19:05.567Z,2812.00
2023-03-03T10:20:05.546Z,2792.00
2023-03-03T10:21:05.545Z,2728.00
2023-03-03T10:22:05.507Z,2712.00
2023-03-03T10:23:05.487Z,2740.00
2023-03-03T10:24:05.511Z,2792.00
2023-03-03T10:25:05.480Z,2940.00
2023-03-03T10:26:05.493Z,3104.00
2023-03-03T10:27:13.626Z,3148.00
2023-03-03T10:28:06.482Z,3084.00
2023-03-03T10:29:06.470Z,3092.00
2023-03-03T10:30:05.457Z,3216.00
2023-03-03T10:31:11.224Z,3336.00
2023-03-03T10:32:06.577Z,3508.00
2023-03-03T10:33:05.653Z,3680.00
2023-03-03T10:34:05.366Z,3728.00
2023-03-03T10:35:05.371Z,3680.00
2023-03-03T10:36:07.643Z,3688.00
2023-03-03T10:37:05.372Z,3692.00
2023-03-03T10:38:05.354Z,3680.00
2023-03-03T10:39:05.331Z,3640.00
2023-03-03T10:40:05.310Z,3592.00
2023-03-03T10:41:05.305Z,3448.00
2023-03-03T10:42:05.282Z,3304.00
2023-03-03T10:43:05.319Z,3480.00
2023-03-03T10:44:05.265Z,3648.00
2023-03-03T10:45:05.261Z,3896.00
2023-03-03T10:46:05.294Z,4196.00
2023-03-03T10:47:05.228Z,4176.00
2023-03-03T10:48:05.243Z,4068.00
2023-03-03T10:49:05.234Z,4076.00
2023-03-03T10:50:05.222Z,4064.00
2023-03-03T10:51:05.181Z,4060.00
2023-03-03T10:52:05.182Z,4100.00
2023-03-03T10:53:05.181Z,4248.00
2023-03-03T10:54:05.330Z,4200.00
2023-03-03T10:55:05.146Z,4088.00
2023-03-03T10:56:05.147Z,4000.00
2023-03-03T10:57:05.138Z,3952.00
2023-03-03T10:58:05.111Z,4028.00
2023-03-03T10:59:05.094Z,4208.00
2023-03-03T11:00:05.083Z,4320.00
2023-03-03T11:01:05.146Z,4468.00
2023-03-03T11:02:05.070Z,4596.00
2023-03-03T11:03:05.061Z,4572.00
2023-03-03T11:04:05.137Z,4436.00
2023-03-03T11:05:05.030Z,4192.00
2023-03-03T11:06:05.051Z,4004.00
2023-03-03T11:07:06.721Z,3884.00
2023-03-03T11:08:04.996Z,3904.00
2023-03-03T11:09:05.000Z,4124.00
2023-03-03T11:10:06.084Z,4348.00
2023-03-03T11:11:04.986Z,4488.00
2023-03-03T11:12:04.953Z,4660.00
2023-03-03T11:13:04.954Z,4628.00
2023-03-03T11:14:04.940Z,4464.00
2023-03-03T11:15:04.933Z,4592.00
2023-03-03T11:16:04.948Z,4632.00
2023-03-03T11:17:04.967Z,4616.00
2023-03-03T11:18:04.899Z,4424.00
2023-03-03T11:19:04.913Z,4244.00
2023-03-03T11:20:04.939Z,4080.00
2023-03-03T11:21:04.855Z,4068.00
2023-03-03T11:22:04.845Z,4120.00
2023-03-03T11:23:04.841Z,4096.00
2023-03-03T11:24:04.851Z,4276.00
2023-03-03T11:25:04.857Z,4404.00
2023-03-03T11:26:04.812Z,4516.00
2023-03-03T11:27:04.798Z,4640.00
2023-03-03T11:28:04.782Z,4684.00
2023-03-03T11:29:04.788Z,4668.00
2023-03-03T11:30:04.759Z,4576.00
2023-03-03T11:31:04.990Z,4580.00
2023-03-03T11:32:04.799Z,4572.00
2023-03-03T11:33:04.741Z,4436.00
2023-03-03T11:34:04.722Z,4408.00
2023-03-03T11:35:04.706Z,4360.00
2023-03-03T11:36:05.747Z,4480.00
2023-03-03T11:37:04.678Z,4668.00
2023-03-03T11:38:04.716Z,4804.00
2023-03-03T11:39:04.668Z,4916.00
2023-03-03T11:40:04.657Z,5096.00
2023-03-03T11:41:04.674Z,5256.00
2023-03-03T11:42:04.630Z,5300.00
2023-03-03T11:43:04.652Z,5308.00
2023-03-03T11:44:04.625Z,5244.00
2023-03-03T11:45:04.603Z,5128.00
2023-03-03T11:46:04.602Z,4872.00
2023-03-03T11:47:04.584Z,4716.00
2023-03-03T11:48:04.582Z,5004.00
2023-03-03T11:49:04.621Z,5280.00
2023-03-03T11:50:04.544Z,5300.00
2023-03-03T11:51:04.560Z,5308.00
2023-03-03T11:52:04.519Z,5468.00
2023-03-03T11:53:04.525Z,5440.00
2023-03-03T11:54:04.496Z,5264.00
2023-03-03T11:55:04.488Z,5152.00
2023-03-03T11:56:04.484Z,5220.00
2023-03-03T11:57:04.514Z,5308.00
2023-03-03T11:58:04.455Z,5280.00
2023-03-03T11:59:04.461Z,5420.00
2023-03-03T12:00:04.422Z,5360.00
2023-03-03T12:01:04.418Z,5368.00
2023-03-03T12:02:04.409Z,6052.00
2023-03-03T12:03:04.421Z,5532.00
2023-03-03T12:04:04.385Z,5504.00
2023-03-03T12:05:04.383Z,5484.00
2023-03-03T12:06:04.382Z,5364.00
2023-03-03T12:07:16.841Z,5436.00
2023-03-03T12:08:05.348Z,5392.00
2023-03-03T12:09:05.388Z,4992.00
2023-03-03T12:10:04.319Z,4688.00
2023-03-03T12:11:04.328Z,4564.00
2023-03-03T12:12:04.298Z,4508.00
2023-03-03T12:13:04.332Z,4456.00
2023-03-03T12:14:04.269Z,4480.00
2023-03-03T12:15:04.323Z,4544.00
2023-03-03T12:16:04.325Z,4648.00
2023-03-03T12:17:04.306Z,4720.00
2023-03-03T12:18:04.221Z,4672.00
2023-03-03T12:19:05.274Z,4572.00
2023-03-03T12:20:04.209Z,4360.00
2023-03-03T12:21:04.208Z,3972.00
2023-03-03T12:22:04.232Z,3576.00
2023-03-03T12:23:07.289Z,3236.00
2023-03-03T12:24:04.930Z,2992.00
2023-03-03T12:25:04.202Z,2752.00
2023-03-03T12:26:04.155Z,2728.00
2023-03-03T12:27:04.152Z,2740.00
2023-03-03T12:28:04.142Z,2756.00
2023-03-03T12:29:04.143Z,2908.00
2023-03-03T12:30:05.384Z,3248.00
2023-03-03T12:31:04.118Z,5472.00
2023-03-03T12:32:04.150Z,4216.00
2023-03-03T12:33:04.096Z,3928.00
2023-03-03T12:34:04.051Z,4412.00
2023-03-03T12:35:04.080Z,3552.00
2023-03-03T12:36:04.075Z,3280.00
2023-03-03T12:37:04.035Z,3056.00
2023-03-03T12:38:04.029Z,3236.00
2023-03-03T12:39:04.004Z,5892.00
2023-03-03T12:40:04.009Z,5088.00
2023-03-03T12:41:03.992Z,3960.00
2023-03-03T12:42:05.338Z,4952.00
2023-03-03T12:43:03.966Z,3404.00
2023-03-03T12:44:03.957Z,5276.00